sensor_id;sensor_type;location;lat;lon;timestamp;P1;durP1;ratioP1;P2;durP2;ratioP2
45198;SDS011;30941;46.422;18.772;2022-11-20T00:02:08;36.15;;;19.88;;
45198;SDS011;30941;46.422;18.772;2022-11-20T00:04:33;40.58;;;19.83;;
45198;SDS011;30941;46.422;18.772;2022-11-20T00:06:58;36.10;;;18.65;;
45198;SDS011;30941;46.422;18.772;2022-11-20T00:09:24;37.15;;;18.23;;
45198;SDS011;30941;46.422;18.772;2022-11-20T00:11:49;39.80;;;19.92;;
45198;SDS011;30941;46.422;18.772;2022-11-20T00:14:14;41.38;;;20.30;;
45198;SDS011;30941;46.422;18.772;2022-11-20T00:16:39;41.50;;;19.25;;
45198;SDS011;30941;46.422;18.772;2022-11-20T00:19:05;41.10;;;20.58;;
45198;SDS011;30941;46.422;18.772;2022-11-20T00:21:31;37.78;;;20.40;;
45198;SDS011;30941;46.422;18.772;2022-11-20T00:23:56;43.58;;;21.75;;
45198;SDS011;30941;46.422;18.772;2022-11-20T00:26:22;37.97;;;19.38;;
45198;SDS011;30941;46.422;18.772;2022-11-20T00:28:50;43.22;;;22.33;;
45198;SDS011;30941;46.422;18.772;2022-11-20T00:31:19;49.88;;;20.73;;
45198;SDS011;30941;46.422;18.772;2022-11-20T00:33:45;45.67;;;21.02;;
45198;SDS011;30941;46.422;18.772;2022-11-20T00:36:17;54.80;;;22.20;;
45198;SDS011;30941;46.422;18.772;2022-11-20T00:38:44;50.42;;;21.13;;
45198;SDS011;30941;46.422;18.772;2022-11-20T00:41:10;47.40;;;20.70;;
45198;SDS011;30941;46.422;18.772;2022-11-20T00:43:37;41.63;;;19.73;;
45198;SDS011;30941;46.422;18.772;2022-11-20T00:46:05;46.30;;;20.83;;
45198;SDS011;30941;46.422;18.772;2022-11-20T00:48:34;44.33;;;22.67;;
45198;SDS011;30941;46.422;18.772;2022-11-20T00:51:00;42.63;;;19.88;;
45198;SDS011;30941;46.422;18.772;2022-11-20T00:53:25;40.50;;;18.88;;
45198;SDS011;30941;46.422;18.772;2022-11-20T00:55:58;39.95;;;18.95;;
45198;SDS011;30941;46.422;18.772;2022-11-20T00:58:24;40.72;;;19.10;;
45198;SDS011;30941;46.422;18.772;2022-11-20T01:00:53;42.53;;;20.55;;
45198;SDS011;30941;46.422;18.772;2022-11-20T01:03:18;38.60;;;18.98;;
45198;SDS011;30941;46.422;18.772;2022-11-20T01:05:44;41.75;;;20.52;;
45198;SDS011;30941;46.422;18.772;2022-11-20T01:08:09;37.03;;;19.48;;
45198;SDS011;30941;46.422;18.772;2022-11-20T01:10:34;41.35;;;20.33;;
45198;SDS011;30941;46.422;18.772;2022-11-20T01:13:00;36.63;;;18.90;;
45198;SDS011;30941;46.422;18.772;2022-11-20T01:15:43;36.45;;;18.20;;
45198;SDS011;30941;46.422;18.772;2022-11-20T01:18:09;36.70;;;18.45;;
45198;SDS011;30941;46.422;18.772;2022-11-20T01:20:34;37.17;;;18.80;;
45198;SDS011;30941;46.422;18.772;2022-11-20T01:23:00;38.75;;;19.75;;
45198;SDS011;30941;46.422;18.772;2022-11-20T01:25:26;37.38;;;19.02;;
45198;SDS011;30941;46.422;18.772;2022-11-20T01:27:52;37.67;;;19.35;;
45198;SDS011;30941;46.422;18.772;2022-11-20T01:30:17;35.67;;;18.58;;
45198;SDS011;30941;46.422;18.772;2022-11-20T01:32:42;37.95;;;19.95;;
45198;SDS011;30941;46.422;18.772;2022-11-20T01:35:08;42.20;;;18.70;;
45198;SDS011;30941;46.422;18.772;2022-11-20T01:37:34;36.10;;;18.17;;
45198;SDS011;30941;46.422;18.772;2022-11-20T01:39:59;37.80;;;18.85;;
45198;SDS011;30941;46.422;18.772;2022-11-20T01:42:25;38.25;;;18.50;;
45198;SDS011;30941;46.422;18.772;2022-11-20T01:47:53;36.35;;;17.58;;
45198;SDS011;30941;46.422;18.772;2022-11-20T01:50:21;38.88;;;17.55;;
45198;SDS011;30941;46.422;18.772;2022-11-20T01:52:49;38.28;;;19.02;;
45198;SDS011;30941;46.422;18.772;2022-11-20T01:55:18;34.50;;;16.35;;
45198;SDS011;30941;46.422;18.772;2022-11-20T01:57:45;39.00;;;18.90;;
45198;SDS011;30941;46.422;18.772;2022-11-20T02:00:11;39.83;;;18.25;;
45198;SDS011;30941;46.422;18.772;2022-11-20T02:02:39;36.80;;;18.17;;
45198;SDS011;30941;46.422;18.772;2022-11-20T02:05:12;33.42;;;16.63;;
45198;SDS011;30941;46.422;18.772;2022-11-20T02:07:42;38.47;;;18.08;;
45198;SDS011;30941;46.422;18.772;2022-11-20T02:10:08;37.05;;;18.52;;
45198;SDS011;30941;46.422;18.772;2022-11-20T02:12:33;36.45;;;17.52;;
45198;SDS011;30941;46.422;18.772;2022-11-20T02:15:17;34.20;;;16.85;;
45198;SDS011;30941;46.422;18.772;2022-11-20T02:17:42;33.40;;;16.33;;
45198;SDS011;30941;46.422;18.772;2022-11-20T02:20:08;39.53;;;18.98;;
45198;SDS011;30941;46.422;18.772;2022-11-20T02:23:16;35.03;;;17.17;;
45198;SDS011;30941;46.422;18.772;2022-11-20T02:25:42;35.00;;;17.15;;
45198;SDS011;30941;46.422;18.772;2022-11-20T02:28:08;41.42;;;18.20;;
45198;SDS011;30941;46.422;18.772;2022-11-20T02:30:34;40.95;;;18.48;;
45198;SDS011;30941;46.422;18.772;2022-11-20T02:33:00;40.75;;;18.48;;
45198;SDS011;30941;46.422;18.772;2022-11-20T02:37:51;46.28;;;20.67;;
45198;SDS011;30941;46.422;18.772;2022-11-20T02:40:18;45.20;;;19.30;;
45198;SDS011;30941;46.422;18.772;2022-11-20T02:42:44;51.35;;;20.48;;
45198;SDS011;30941;46.422;18.772;2022-11-20T02:45:09;51.75;;;21.48;;
45198;SDS011;30941;46.422;18.772;2022-11-20T02:47:35;52.42;;;22.95;;
45198;SDS011;30941;46.422;18.772;2022-11-20T02:50:00;50.88;;;20.25;;
45198;SDS011;30941;46.422;18.772;2022-11-20T02:52:26;48.05;;;22.85;;
45198;SDS011;30941;46.422;18.772;2022-11-20T02:54:51;54.40;;;22.15;;
45198;SDS011;30941;46.422;18.772;2022-11-20T02:57:17;55.35;;;23.17;;
45198;SDS011;30941;46.422;18.772;2022-11-20T02:59:42;52.33;;;22.30;;
45198;SDS011;30941;46.422;18.772;2022-11-20T03:02:07;51.30;;;21.77;;
45198;SDS011;30941;46.422;18.772;2022-11-20T03:04:33;52.03;;;21.20;;
45198;SDS011;30941;46.422;18.772;2022-11-20T03:06:58;55.15;;;21.75;;
45198;SDS011;30941;46.422;18.772;2022-11-20T03:09:24;57.10;;;21.88;;
45198;SDS011;30941;46.422;18.772;2022-11-20T03:11:49;51.60;;;21.30;;
45198;SDS011;30941;46.422;18.772;2022-11-20T03:14:14;50.15;;;20.80;;
45198;SDS011;30941;46.422;18.772;2022-11-20T03:16:40;48.95;;;20.67;;
45198;SDS011;30941;46.422;18.772;2022-11-20T03:19:05;51.58;;;19.83;;
45198;SDS011;30941;46.422;18.772;2022-11-20T03:21:32;48.50;;;20.05;;
45198;SDS011;30941;46.422;18.772;2022-11-20T03:23:58;45.63;;;19.00;;
45198;SDS011;30941;46.422;18.772;2022-11-20T03:26:24;44.50;;;20.60;;
45198;SDS011;30941;46.422;18.772;2022-11-20T03:28:51;48.15;;;20.50;;
45198;SDS011;30941;46.422;18.772;2022-11-20T03:31:19;44.65;;;20.17;;
45198;SDS011;30941;46.422;18.772;2022-11-20T03:33:46;44.15;;;19.45;;
45198;SDS011;30941;46.422;18.772;2022-11-20T03:36:12;43.50;;;17.60;;
45198;SDS011;30941;46.422;18.772;2022-11-20T03:38:39;46.97;;;20.15;;
45198;SDS011;30941;46.422;18.772;2022-11-20T03:41:05;40.75;;;19.52;;
45198;SDS011;30941;46.422;18.772;2022-11-20T03:43:35;40.65;;;17.33;;
45198;SDS011;30941;46.422;18.772;2022-11-20T03:46:00;39.22;;;17.80;;
45198;SDS011;30941;46.422;18.772;2022-11-20T03:48:26;39.53;;;18.65;;
45198;SDS011;30941;46.422;18.772;2022-11-20T03:50:52;40.03;;;18.23;;
45198;SDS011;30941;46.422;18.772;2022-11-20T03:53:19;36.80;;;17.20;;
45198;SDS011;30941;46.422;18.772;2022-11-20T03:55:44;36.40;;;18.88;;
45198;SDS011;30941;46.422;18.772;2022-11-20T03:58:10;38.38;;;19.08;;
45198;SDS011;30941;46.422;18.772;2022-11-20T04:00:35;35.42;;;16.17;;
45198;SDS011;30941;46.422;18.772;2022-11-20T04:03:01;38.20;;;17.38;;
45198;SDS011;30941;46.422;18.772;2022-11-20T04:05:27;35.35;;;18.00;;
45198;SDS011;30941;46.422;18.772;2022-11-20T04:07:52;38.30;;;17.83;;
45198;SDS011;30941;46.422;18.772;2022-11-20T04:10:18;38.58;;;17.15;;
45198;SDS011;30941;46.422;18.772;2022-11-20T04:12:44;33.80;;;18.33;;
45198;SDS011;30941;46.422;18.772;2022-11-20T04:15:09;35.10;;;17.05;;
45198;SDS011;30941;46.422;18.772;2022-11-20T04:17:34;32.90;;;16.35;;
45198;SDS011;30941;46.422;18.772;2022-11-20T04:20:00;33.22;;;16.08;;
45198;SDS011;30941;46.422;18.772;2022-11-20T04:22:26;36.17;;;17.38;;
45198;SDS011;30941;46.422;18.772;2022-11-20T04:24:51;30.92;;;15.40;;
45198;SDS011;30941;46.422;18.772;2022-11-20T04:27:17;35.72;;;18.40;;
45198;SDS011;30941;46.422;18.772;2022-11-20T04:29:42;38.97;;;17.58;;
45198;SDS011;30941;46.422;18.772;2022-11-20T04:32:07;34.78;;;16.50;;
45198;SDS011;30941;46.422;18.772;2022-11-20T04:34:33;37.50;;;17.50;;
45198;SDS011;30941;46.422;18.772;2022-11-20T04:36:58;36.60;;;16.90;;
45198;SDS011;30941;46.422;18.772;2022-11-20T04:39:24;40.85;;;18.85;;
45198;SDS011;30941;46.422;18.772;2022-11-20T04:41:49;34.55;;;16.90;;
45198;SDS011;30941;46.422;18.772;2022-11-20T04:44:34;38.08;;;17.60;;
45198;SDS011;30941;46.422;18.772;2022-11-20T04:47:00;42.10;;;18.70;;
45198;SDS011;30941;46.422;18.772;2022-11-20T04:49:25;42.70;;;18.30;;
45198;SDS011;30941;46.422;18.772;2022-11-20T04:51:52;37.13;;;16.75;;
45198;SDS011;30941;46.422;18.772;2022-11-20T04:54:18;38.33;;;17.40;;
45198;SDS011;30941;46.422;18.772;2022-11-20T04:56:45;42.70;;;18.23;;
45198;SDS011;30941;46.422;18.772;2022-11-20T04:59:12;41.15;;;18.27;;
45198;SDS011;30941;46.422;18.772;2022-11-20T05:01:37;43.92;;;19.52;;
45198;SDS011;30941;46.422;18.772;2022-11-20T05:04:03;42.75;;;18.77;;
45198;SDS011;30941;46.422;18.772;2022-11-20T05:06:28;45.38;;;20.58;;
45198;SDS011;30941;46.422;18.772;2022-11-20T05:08:53;49.25;;;20.75;;
45198;SDS011;30941;46.422;18.772;2022-11-20T05:11:19;45.97;;;20.45;;
45198;SDS011;30941;46.422;18.772;2022-11-20T05:13:46;48.80;;;21.02;;
45198;SDS011;30941;46.422;18.772;2022-11-20T05:16:16;44.67;;;19.27;;
45198;SDS011;30941;46.422;18.772;2022-11-20T05:18:51;42.40;;;19.55;;
45198;SDS011;30941;46.422;18.772;2022-11-20T05:21:18;41.92;;;19.17;;
45198;SDS011;30941;46.422;18.772;2022-11-20T05:23:44;42.08;;;18.10;;
45198;SDS011;30941;46.422;18.772;2022-11-20T05:26:17;44.33;;;19.33;;
45198;SDS011;30941;46.422;18.772;2022-11-20T05:28:44;46.08;;;19.13;;
45198;SDS011;30941;46.422;18.772;2022-11-20T05:31:11;45.92;;;18.15;;
45198;SDS011;30941;46.422;18.772;2022-11-20T05:33:39;45.88;;;19.27;;
45198;SDS011;30941;46.422;18.772;2022-11-20T05:36:05;43.88;;;19.00;;
45198;SDS011;30941;46.422;18.772;2022-11-20T05:38:31;41.97;;;17.92;;
45198;SDS011;30941;46.422;18.772;2022-11-20T05:41:06;39.53;;;18.25;;
45198;SDS011;30941;46.422;18.772;2022-11-20T05:43:36;33.70;;;16.35;;
45198;SDS011;30941;46.422;18.772;2022-11-20T05:46:04;40.35;;;18.00;;
45198;SDS011;30941;46.422;18.772;2022-11-20T05:48:30;41.53;;;18.90;;
45198;SDS011;30941;46.422;18.772;2022-11-20T05:50:56;36.47;;;16.25;;
45198;SDS011;30941;46.422;18.772;2022-11-20T05:53:23;38.28;;;17.60;;
45198;SDS011;30941;46.422;18.772;2022-11-20T05:55:55;38.53;;;17.27;;
45198;SDS011;30941;46.422;18.772;2022-11-20T05:58:24;35.80;;;17.13;;
45198;SDS011;30941;46.422;18.772;2022-11-20T06:00:49;40.30;;;16.95;;
45198;SDS011;30941;46.422;18.772;2022-11-20T06:03:15;36.60;;;17.30;;
45198;SDS011;30941;46.422;18.772;2022-11-20T06:05:40;36.03;;;15.50;;
45198;SDS011;30941;46.422;18.772;2022-11-20T06:08:05;36.85;;;16.42;;
45198;SDS011;30941;46.422;18.772;2022-11-20T06:10:31;39.60;;;17.63;;
45198;SDS011;30941;46.422;18.772;2022-11-20T06:12:59;37.55;;;17.48;;
45198;SDS011;30941;46.422;18.772;2022-11-20T06:15:25;39.00;;;18.02;;
45198;SDS011;30941;46.422;18.772;2022-11-20T06:17:53;41.25;;;19.70;;
45198;SDS011;30941;46.422;18.772;2022-11-20T06:20:20;65.80;;;30.13;;
45198;SDS011;30941;46.422;18.772;2022-11-20T06:22:45;53.67;;;25.80;;
45198;SDS011;30941;46.422;18.772;2022-11-20T06:25:11;41.08;;;19.80;;
45198;SDS011;30941;46.422;18.772;2022-11-20T06:27:36;52.20;;;24.02;;
45198;SDS011;30941;46.422;18.772;2022-11-20T06:30:02;45.15;;;20.83;;
45198;SDS011;30941;46.422;18.772;2022-11-20T06:32:28;43.85;;;18.73;;
45198;SDS011;30941;46.422;18.772;2022-11-20T06:34:53;43.17;;;19.20;;
45198;SDS011;30941;46.422;18.772;2022-11-20T06:37:18;40.85;;;18.63;;
45198;SDS011;30941;46.422;18.772;2022-11-20T06:39:44;37.92;;;16.70;;
45198;SDS011;30941;46.422;18.772;2022-11-20T06:42:09;39.47;;;18.70;;
45198;SDS011;30941;46.422;18.772;2022-11-20T06:44:34;42.80;;;20.50;;
45198;SDS011;30941;46.422;18.772;2022-11-20T06:47:00;43.40;;;20.60;;
45198;SDS011;30941;46.422;18.772;2022-11-20T06:49:25;42.90;;;18.77;;
45198;SDS011;30941;46.422;18.772;2022-11-20T06:51:51;40.85;;;19.00;;
45198;SDS011;30941;46.422;18.772;2022-11-20T06:54:16;44.22;;;20.13;;
45198;SDS011;30941;46.422;18.772;2022-11-20T06:56:41;51.70;;;23.25;;
45198;SDS011;30941;46.422;18.772;2022-11-20T06:59:07;49.85;;;21.45;;
45198;SDS011;30941;46.422;18.772;2022-11-20T07:01:32;42.55;;;18.05;;
45198;SDS011;30941;46.422;18.772;2022-11-20T07:03:58;39.58;;;16.52;;
45198;SDS011;30941;46.422;18.772;2022-11-20T07:06:23;47.65;;;20.15;;
45198;SDS011;30941;46.422;18.772;2022-11-20T07:08:50;49.05;;;22.48;;
45198;SDS011;30941;46.422;18.772;2022-11-20T07:11:17;47.35;;;22.50;;
45198;SDS011;30941;46.422;18.772;2022-11-20T07:13:42;44.92;;;19.90;;
45198;SDS011;30941;46.422;18.772;2022-11-20T07:16:08;42.85;;;18.45;;
45198;SDS011;30941;46.422;18.772;2022-11-20T07:18:33;50.15;;;19.98;;
45198;SDS011;30941;46.422;18.772;2022-11-20T07:21:00;42.97;;;18.42;;
45198;SDS011;30941;46.422;18.772;2022-11-20T07:23:28;49.00;;;20.63;;
45198;SDS011;30941;46.422;18.772;2022-11-20T07:25:53;50.03;;;21.05;;
45198;SDS011;30941;46.422;18.772;2022-11-20T07:28:19;50.65;;;21.90;;
45198;SDS011;30941;46.422;18.772;2022-11-20T07:30:49;48.60;;;21.38;;
45198;SDS011;30941;46.422;18.772;2022-11-20T07:33:17;52.15;;;20.20;;
45198;SDS011;30941;46.422;18.772;2022-11-20T07:35:43;45.63;;;20.88;;
45198;SDS011;30941;46.422;18.772;2022-11-20T07:38:08;46.53;;;20.67;;
45198;SDS011;30941;46.422;18.772;2022-11-20T07:40:34;50.05;;;22.23;;
45198;SDS011;30941;46.422;18.772;2022-11-20T07:42:59;51.28;;;21.02;;
45198;SDS011;30941;46.422;18.772;2022-11-20T07:45:24;43.28;;;19.83;;
45198;SDS011;30941;46.422;18.772;2022-11-20T07:47:50;47.60;;;21.25;;
45198;SDS011;30941;46.422;18.772;2022-11-20T07:50:15;50.33;;;22.50;;
45198;SDS011;30941;46.422;18.772;2022-11-20T07:52:41;47.13;;;21.60;;
45198;SDS011;30941;46.422;18.772;2022-11-20T07:55:07;51.60;;;23.75;;
45198;SDS011;30941;46.422;18.772;2022-11-20T07:57:33;48.95;;;21.02;;
45198;SDS011;30941;46.422;18.772;2022-11-20T07:59:58;47.88;;;21.40;;
45198;SDS011;30941;46.422;18.772;2022-11-20T08:02:24;52.67;;;22.02;;
45198;SDS011;30941;46.422;18.772;2022-11-20T08:04:49;47.45;;;21.63;;
45198;SDS011;30941;46.422;18.772;2022-11-20T08:07:14;56.60;;;22.88;;
45198;SDS011;30941;46.422;18.772;2022-11-20T08:09:40;51.30;;;21.75;;
45198;SDS011;30941;46.422;18.772;2022-11-20T08:12:05;50.78;;;22.45;;
45198;SDS011;30941;46.422;18.772;2022-11-20T08:14:49;48.47;;;21.63;;
45198;SDS011;30941;46.422;18.772;2022-11-20T08:17:15;53.08;;;21.83;;
45198;SDS011;30941;46.422;18.772;2022-11-20T08:19:40;48.58;;;22.83;;
45198;SDS011;30941;46.422;18.772;2022-11-20T08:22:05;51.10;;;21.90;;
45198;SDS011;30941;46.422;18.772;2022-11-20T08:24:31;46.22;;;21.15;;
45198;SDS011;30941;46.422;18.772;2022-11-20T08:26:59;49.60;;;21.08;;
45198;SDS011;30941;46.422;18.772;2022-11-20T08:29:27;52.55;;;22.70;;
45198;SDS011;30941;46.422;18.772;2022-11-20T08:31:53;52.67;;;24.77;;
45198;SDS011;30941;46.422;18.772;2022-11-20T08:34:18;51.53;;;24.00;;
45198;SDS011;30941;46.422;18.772;2022-11-20T08:36:43;51.53;;;23.35;;
45198;SDS011;30941;46.422;18.772;2022-11-20T08:39:12;56.17;;;25.08;;
45198;SDS011;30941;46.422;18.772;2022-11-20T08:41:38;49.00;;;22.17;;
45198;SDS011;30941;46.422;18.772;2022-11-20T08:44:04;58.67;;;24.60;;
45198;SDS011;30941;46.422;18.772;2022-11-20T08:46:32;51.33;;;23.73;;
45198;SDS011;30941;46.422;18.772;2022-11-20T08:49:06;55.13;;;22.95;;
45198;SDS011;30941;46.422;18.772;2022-11-20T08:51:33;57.35;;;25.65;;
45198;SDS011;30941;46.422;18.772;2022-11-20T08:53:59;51.00;;;21.73;;
45198;SDS011;30941;46.422;18.772;2022-11-20T08:56:24;51.53;;;22.75;;
45198;SDS011;30941;46.422;18.772;2022-11-20T08:58:50;50.47;;;22.83;;
45198;SDS011;30941;46.422;18.772;2022-11-20T09:01:17;55.80;;;25.38;;
45198;SDS011;30941;46.422;18.772;2022-11-20T09:03:42;54.92;;;25.13;;
45198;SDS011;30941;46.422;18.772;2022-11-20T09:06:08;53.13;;;25.75;;
45198;SDS011;30941;46.422;18.772;2022-11-20T09:08:33;54.92;;;23.88;;
45198;SDS011;30941;46.422;18.772;2022-11-20T09:11:00;53.97;;;23.73;;
45198;SDS011;30941;46.422;18.772;2022-11-20T09:13:26;56.08;;;25.80;;
45198;SDS011;30941;46.422;18.772;2022-11-20T09:15:53;53.72;;;25.25;;
45198;SDS011;30941;46.422;18.772;2022-11-20T09:18:19;52.97;;;25.05;;
45198;SDS011;30941;46.422;18.772;2022-11-20T09:20:45;55.22;;;25.02;;
45198;SDS011;30941;46.422;18.772;2022-11-20T09:23:10;60.30;;;25.27;;
45198;SDS011;30941;46.422;18.772;2022-11-20T09:25:35;51.05;;;24.23;;
45198;SDS011;30941;46.422;18.772;2022-11-20T09:28:01;56.42;;;24.55;;
45198;SDS011;30941;46.422;18.772;2022-11-20T09:30:26;59.70;;;25.05;;
45198;SDS011;30941;46.422;18.772;2022-11-20T09:32:52;53.88;;;26.65;;
45198;SDS011;30941;46.422;18.772;2022-11-20T09:35:17;61.70;;;26.92;;
45198;SDS011;30941;46.422;18.772;2022-11-20T09:37:43;61.80;;;26.95;;
45198;SDS011;30941;46.422;18.772;2022-11-20T09:40:18;66.60;;;32.13;;
45198;SDS011;30941;46.422;18.772;2022-11-20T09:45:21;90.97;;;39.30;;
45198;SDS011;30941;46.422;18.772;2022-11-20T09:48:29;66.38;;;30.58;;
45198;SDS011;30941;46.422;18.772;2022-11-20T09:56:33;66.65;;;30.25;;
45198;SDS011;30941;46.422;18.772;2022-11-20T09:58:59;67.68;;;32.75;;
45198;SDS011;30941;46.422;18.772;2022-11-20T10:01:32;68.85;;;33.85;;
45198;SDS011;30941;46.422;18.772;2022-11-20T10:04:18;59.88;;;28.33;;
45198;SDS011;30941;46.422;18.772;2022-11-20T10:06:53;57.33;;;24.88;;
45198;SDS011;30941;46.422;18.772;2022-11-20T10:09:27;49.53;;;23.55;;
45198;SDS011;30941;46.422;18.772;2022-11-20T10:17:23;47.35;;;22.95;;
45198;SDS011;30941;46.422;18.772;2022-11-20T10:20:02;48.25;;;22.77;;
45198;SDS011;30941;46.422;18.772;2022-11-20T10:25:14;41.60;;;20.58;;
45198;SDS011;30941;46.422;18.772;2022-11-20T10:31:09;48.88;;;22.08;;
45198;SDS011;30941;46.422;18.772;2022-11-20T10:33:41;121.10;;;44.83;;
45198;SDS011;30941;46.422;18.772;2022-11-20T10:36:13;61.83;;;26.80;;
45198;SDS011;30941;46.422;18.772;2022-11-20T10:41:23;39.83;;;21.02;;
45198;SDS011;30941;46.422;18.772;2022-11-20T10:46:40;68.75;;;34.53;;
45198;SDS011;30941;46.422;18.772;2022-11-20T10:49:15;97.03;;;48.92;;
45198;SDS011;30941;46.422;18.772;2022-11-20T10:54:26;80.10;;;33.97;;
45198;SDS011;30941;46.422;18.772;2022-11-20T10:57:07;56.83;;;31.33;;
45198;SDS011;30941;46.422;18.772;2022-11-20T11:02:48;43.50;;;24.90;;
45198;SDS011;30941;46.422;18.772;2022-11-20T11:10:26;38.53;;;19.75;;
45198;SDS011;30941;46.422;18.772;2022-11-20T11:13:01;36.05;;;19.33;;
45198;SDS011;30941;46.422;18.772;2022-11-20T11:15:36;33.30;;;17.73;;
45198;SDS011;30941;46.422;18.772;2022-11-20T11:18:03;42.47;;;20.10;;
45198;SDS011;30941;46.422;18.772;2022-11-20T11:20:29;41.53;;;20.48;;
45198;SDS011;30941;46.422;18.772;2022-11-20T11:22:55;36.28;;;18.65;;
45198;SDS011;30941;46.422;18.772;2022-11-20T11:25:35;35.05;;;18.05;;
45198;SDS011;30941;46.422;18.772;2022-11-20T11:28:02;35.20;;;18.48;;
45198;SDS011;30941;46.422;18.772;2022-11-20T11:30:43;38.13;;;20.50;;
45198;SDS011;30941;46.422;18.772;2022-11-20T11:33:10;32.47;;;17.15;;
45198;SDS011;30941;46.422;18.772;2022-11-20T11:35:47;35.95;;;18.35;;
45198;SDS011;30941;46.422;18.772;2022-11-20T11:38:15;38.72;;;19.48;;
45198;SDS011;30941;46.422;18.772;2022-11-20T11:40:42;44.20;;;27.17;;
45198;SDS011;30941;46.422;18.772;2022-11-20T11:43:16;38.30;;;24.40;;
45198;SDS011;30941;46.422;18.772;2022-11-20T11:46:02;46.72;;;28.50;;
45198;SDS011;30941;46.422;18.772;2022-11-20T11:48:30;35.28;;;21.25;;
45198;SDS011;30941;46.422;18.772;2022-11-20T11:50:55;33.05;;;18.75;;
45198;SDS011;30941;46.422;18.772;2022-11-20T11:53:21;34.78;;;19.10;;
45198;SDS011;30941;46.422;18.772;2022-11-20T11:56:08;36.33;;;20.05;;
45198;SDS011;30941;46.422;18.772;2022-11-20T11:58:45;33.50;;;19.30;;
45198;SDS011;30941;46.422;18.772;2022-11-20T12:01:17;43.75;;;24.63;;
45198;SDS011;30941;46.422;18.772;2022-11-20T12:03:52;41.47;;;23.15;;
45198;SDS011;30941;46.422;18.772;2022-11-20T12:06:20;37.67;;;19.27;;
45198;SDS011;30941;46.422;18.772;2022-11-20T12:08:51;46.80;;;24.42;;
45198;SDS011;30941;46.422;18.772;2022-11-20T12:14:01;33.97;;;18.60;;
45198;SDS011;30941;46.422;18.772;2022-11-20T12:16:37;38.63;;;20.70;;
45198;SDS011;30941;46.422;18.772;2022-11-20T12:19:07;41.97;;;20.58;;
45198;SDS011;30941;46.422;18.772;2022-11-20T12:24:21;36.95;;;19.08;;
45198;SDS011;30941;46.422;18.772;2022-11-20T12:29:31;37.45;;;18.88;;
45198;SDS011;30941;46.422;18.772;2022-11-20T12:32:20;36.72;;;19.63;;
45198;SDS011;30941;46.422;18.772;2022-11-20T12:34:54;40.08;;;20.65;;
45198;SDS011;30941;46.422;18.772;2022-11-20T12:40:12;40.20;;;21.92;;
45198;SDS011;30941;46.422;18.772;2022-11-20T12:42:47;41.88;;;22.10;;
45198;SDS011;30941;46.422;18.772;2022-11-20T12:57:05;39.80;;;22.05;;
45198;SDS011;30941;46.422;18.772;2022-11-20T13:05:17;37.95;;;20.55;;
45198;SDS011;30941;46.422;18.772;2022-11-20T13:07:43;33.97;;;20.00;;
45198;SDS011;30941;46.422;18.772;2022-11-20T13:13:04;33.60;;;18.42;;
45198;SDS011;30941;46.422;18.772;2022-11-20T13:18:13;35.13;;;18.92;;
45198;SDS011;30941;46.422;18.772;2022-11-20T13:20:43;34.20;;;18.10;;
45198;SDS011;30941;46.422;18.772;2022-11-20T13:23:09;34.47;;;18.65;;
45198;SDS011;30941;46.422;18.772;2022-11-20T13:25:38;33.67;;;18.98;;
45198;SDS011;30941;46.422;18.772;2022-11-20T13:30:34;39.08;;;22.45;;
45198;SDS011;30941;46.422;18.772;2022-11-20T13:33:07;44.03;;;21.67;;
45198;SDS011;30941;46.422;18.772;2022-11-20T13:35:35;39.45;;;21.55;;
45198;SDS011;30941;46.422;18.772;2022-11-20T13:40:27;45.55;;;26.55;;
45198;SDS011;30941;46.422;18.772;2022-11-20T13:43:17;44.33;;;24.42;;
45198;SDS011;30941;46.422;18.772;2022-11-20T13:45:53;41.67;;;21.73;;
45198;SDS011;30941;46.422;18.772;2022-11-20T13:48:23;44.53;;;21.50;;
45198;SDS011;30941;46.422;18.772;2022-11-20T13:54:06;41.58;;;21.42;;
45198;SDS011;30941;46.422;18.772;2022-11-20T13:56:56;42.88;;;23.48;;
45198;SDS011;30941;46.422;18.772;2022-11-20T14:02:14;45.92;;;23.67;;
45198;SDS011;30941;46.422;18.772;2022-11-20T14:04:42;53.75;;;30.13;;
45198;SDS011;30941;46.422;18.772;2022-11-20T14:07:10;53.47;;;29.85;;
45198;SDS011;30941;46.422;18.772;2022-11-20T14:09:35;47.22;;;25.85;;
45198;SDS011;30941;46.422;18.772;2022-11-20T14:12:02;41.95;;;21.92;;
45198;SDS011;30941;46.422;18.772;2022-11-20T14:14:28;40.78;;;22.38;;
45198;SDS011;30941;46.422;18.772;2022-11-20T14:19:58;45.13;;;24.58;;
45198;SDS011;30941;46.422;18.772;2022-11-20T14:22:26;45.67;;;24.38;;
45198;SDS011;30941;46.422;18.772;2022-11-20T14:27:28;57.92;;;30.48;;
45198;SDS011;30941;46.422;18.772;2022-11-20T14:29:54;52.80;;;28.05;;
45198;SDS011;30941;46.422;18.772;2022-11-20T14:32:20;48.95;;;26.23;;
45198;SDS011;30941;46.422;18.772;2022-11-20T14:34:48;41.72;;;23.02;;
45198;SDS011;30941;46.422;18.772;2022-11-20T14:37:24;38.65;;;21.50;;
45198;SDS011;30941;46.422;18.772;2022-11-20T14:39:52;38.88;;;21.20;;
45198;SDS011;30941;46.422;18.772;2022-11-20T14:42:23;38.20;;;21.75;;
45198;SDS011;30941;46.422;18.772;2022-11-20T14:44:49;44.85;;;23.40;;
45198;SDS011;30941;46.422;18.772;2022-11-20T14:47:17;41.13;;;23.88;;
45198;SDS011;30941;46.422;18.772;2022-11-20T14:49:44;42.13;;;23.67;;
45198;SDS011;30941;46.422;18.772;2022-11-20T14:52:18;43.70;;;24.83;;
45198;SDS011;30941;46.422;18.772;2022-11-20T14:54:51;40.33;;;23.23;;
45198;SDS011;30941;46.422;18.772;2022-11-20T14:57:25;40.92;;;22.02;;
45198;SDS011;30941;46.422;18.772;2022-11-20T15:02:16;42.67;;;22.98;;
45198;SDS011;30941;46.422;18.772;2022-11-20T15:04:48;49.35;;;25.77;;
45198;SDS011;30941;46.422;18.772;2022-11-20T15:07:24;51.47;;;26.92;;
45198;SDS011;30941;46.422;18.772;2022-11-20T15:10:04;48.70;;;25.67;;
45198;SDS011;30941;46.422;18.772;2022-11-20T15:12:38;48.13;;;25.83;;
45198;SDS011;30941;46.422;18.772;2022-11-20T15:15:05;49.28;;;25.33;;
45198;SDS011;30941;46.422;18.772;2022-11-20T15:17:32;51.42;;;26.75;;
45198;SDS011;30941;46.422;18.772;2022-11-20T15:20:05;53.47;;;27.98;;
45198;SDS011;30941;46.422;18.772;2022-11-20T15:22:37;56.33;;;28.63;;
45198;SDS011;30941;46.422;18.772;2022-11-20T15:25:05;50.30;;;28.02;;
45198;SDS011;30941;46.422;18.772;2022-11-20T15:27:36;58.05;;;30.98;;
45198;SDS011;30941;46.422;18.772;2022-11-20T15:30:02;61.55;;;31.25;;
45198;SDS011;30941;46.422;18.772;2022-11-20T15:32:27;70.95;;;34.17;;
45198;SDS011;30941;46.422;18.772;2022-11-20T15:34:52;73.78;;;38.33;;
45198;SDS011;30941;46.422;18.772;2022-11-20T15:37:18;70.55;;;35.45;;
45198;SDS011;30941;46.422;18.772;2022-11-20T15:39:43;74.30;;;36.03;;
45198;SDS011;30941;46.422;18.772;2022-11-20T15:42:08;63.00;;;32.95;;
45198;SDS011;30941;46.422;18.772;2022-11-20T15:44:34;60.40;;;33.78;;
45198;SDS011;30941;46.422;18.772;2022-11-20T15:46:59;61.90;;;32.53;;
45198;SDS011;30941;46.422;18.772;2022-11-20T15:49:24;59.78;;;31.83;;